Time;durP1;ratioP1;P1;durP2;ratioP2;P2;SDS_P1;SDS_P2;PMS_P1;PMS_P2;Temp;Humidity;BMP_temperature;BMP_pressure;BME280_temperature;BME280_humidity;BME280_pressure;Samples;Min_cycle;Max_cycle;Signal;HPM_P1;HPM_P2
2022/05/21 00:00:31;;;;;;;3.25;1.20;;;20.50;56.80;;;;;;5113304;27;20043;-70
2022/05/21 00:02:58;;;;;;;1.90;1.10;;;20.50;56.80;;;;;;5113035;28;20039;-70
2022/05/21 00:05:26;;;;;;;1.58;1.00;;;20.50;56.80;;;;;;5113548;28;20485;-70
2022/05/21 00:07:53;;;;;;;1.38;1.00;;;20.50;56.80;;;;;;5112397;28;20126;-70
2022/05/21 00:10:21;;;;;;;1.10;0.90;;;20.50;56.80;;;;;;5111562;28;20052;-70
2022/05/21 00:12:47;;;;;;;2.20;0.95;;;20.50;56.80;;;;;;5113261;28;20048;-70
2022/05/21 00:15:17;;;;;;;1.83;1.00;;;21.10;61.20;;;;;;5112301;28;20052;-70
2022/05/21 00:17:43;;;;;;;1.10;0.95;;;20.50;56.80;;;;;;5112150;28;20476;-70
2022/05/21 00:20:47;;;;;;;1.27;0.90;;;20.40;61.10;;;;;;5112947;28;20044;-70
2022/05/21 00:22:58;;;;;;;1.50;1.00;;;20.40;56.80;;;;;;5097485;28;20046;-70
2022/05/21 00:25:25;;;;;;;1.70;1.08;;;20.40;61.00;;;;;;5112056;28;20056;-70
2022/05/21 00:27:51;;;;;;;1.60;1.00;;;20.40;56.80;;;;;;5112090;28;20077;-70
2022/05/21 00:30:19;;;;;;;1.48;1.00;;;20.40;56.80;;;;;;5111259;28;20051;-70
2022/05/21 00:32:46;;;;;;;1.98;1.02;;;20.40;59.70;;;;;;5111674;28;20051;-70
2022/05/21 00:35:13;;;;;;;1.55;1.10;;;20.40;56.80;;;;;;5111767;28;20052;-70
2022/05/21 00:37:39;;;;;;;1.70;1.05;;;20.40;56.80;;;;;;5112822;28;20470;-70
2022/05/21 00:40:07;;;;;;;2.08;1.00;;;20.40;56.80;;;;;;5111466;28;20139;-70
2022/05/21 00:42:34;;;;;;;1.50;1.00;;;20.40;56.80;;;;;;5111383;28;20073;-70
2022/05/21 00:45:00;;;;;;;2.33;1.30;;;20.40;56.80;;;;;;5111768;28;20067;-70
2022/05/21 00:47:28;;;;;;;2.05;1.10;;;20.40;57.40;;;;;;5111770;28;20073;-70
2022/05/21 00:49:55;;;;;;;2.78;1.30;;;20.30;61.50;;;;;;5111396;28;20052;-70
2022/05/21 00:52:23;;;;;;;2.20;1.10;;;20.30;56.70;;;;;;5111503;28;20468;-70
2022/05/21 00:54:51;;;;;;;2.30;1.13;;;20.30;56.70;;;;;;5111228;28;20066;-70
2022/05/21 00:57:23;;;;;;;1.42;0.93;;;20.30;56.70;;;;;;5111396;28;20055;-70
2022/05/21 00:59:51;;;;;;;1.65;1.10;;;20.30;56.80;;;;;;5111272;28;20070;-70
2022/05/21 01:02:20;;;;;;;1.95;1.05;;;20.30;56.80;;;;;;5111450;28;20054;-70
2022/05/21 01:04:48;;;;;;;2.30;1.02;;;20.30;56.80;;;;;;5111398;28;20415;-70
2022/05/21 01:07:15;;;;;;;3.22;1.08;;;20.30;56.80;;;;;;5111335;28;20051;-70
2022/05/21 01:09:44;;;;;;;2.50;1.20;;;20.30;56.80;;;;;;5110833;28;20063;-70
2022/05/21 01:12:11;;;;;;;2.33;1.00;;;20.30;56.80;;;;;;5111232;28;20052;-70
2022/05/21 01:14:39;;;;;;;1.95;1.23;;;21.30;60.70;;;;;;5111049;28;20048;-70
2022/05/21 01:17:06;;;;;;;4.18;1.20;;;20.30;56.80;;;;;;5111414;28;20516;-70
2022/05/21 01:19:32;;;;;;;2.60;1.20;;;20.20;56.70;;;;;;5112250;28;20047;-70
2022/05/21 01:22:00;;;;;;;1.88;1.23;;;20.30;56.70;;;;;;5111067;28;20393;-70
2022/05/21 01:24:28;;;;;;;2.90;1.30;;;20.30;56.80;;;;;;5112189;28;20049;-70
2022/05/21 01:26:56;;;;;;;1.92;1.25;;;20.20;56.70;;;;;;5110933;28;20415;-69
2022/05/21 01:29:23;;;;;;;2.13;1.20;;;20.20;56.80;;;;;;5111045;28;20511;-71
2022/05/21 01:31:50;;;;;;;2.75;1.35;;;20.90;60.30;;;;;;5110506;28;20066;-69
2022/05/21 01:34:17;;;;;;;2.05;1.33;;;20.20;56.70;;;;;;5111128;28;20062;-70
2022/05/21 01:36:44;;;;;;;2.25;1.30;;;20.20;56.70;;;;;;5111073;28;20427;-70
2022/05/21 01:39:11;;;;;;;2.58;1.30;;;20.20;56.80;;;;;;5110969;28;20068;-70
2022/05/21 01:41:41;;;;;;;2.15;1.50;;;20.20;56.80;;;;;;5110749;28;20081;-69
2022/05/21 01:46:52;;;;;;;1.77;1.20;;;20.20;60.00;;;;;;5115023;28;20081;-69
2022/05/21 01:49:19;;;;;;;3.53;1.58;;;20.10;56.80;;;;;;5115064;28;20056;-70
2022/05/21 01:51:46;;;;;;;2.35;1.40;;;20.10;56.70;;;;;;5114821;28;20055;-70
2022/05/21 01:54:12;;;;;;;2.95;1.50;;;19.90;60.80;;;;;;5115057;28;20412;-69
2022/05/21 01:56:40;;;;;;;2.83;1.50;;;20.10;56.80;;;;;;5114705;28;20055;-71
2022/05/21 01:59:07;;;;;;;2.72;1.55;;;20.20;56.80;;;;;;5114646;28;20050;-69
2022/05/21 02:01:34;;;;;;;2.00;1.50;;;20.10;56.80;;;;;;5114688;28;20419;-70
2022/05/21 02:04:00;;;;;;;2.80;1.60;;;20.10;56.80;;;;;;5114641;28;20051;-69
2022/05/21 02:06:28;;;;;;;2.58;1.60;;;20.10;56.80;;;;;;5114800;28;20055;-69
2022/05/21 02:08:54;;;;;;;3.75;1.70;;;20.10;56.80;;;;;;5114668;28;20463;-69
2022/05/21 02:11:21;;;;;;;2.10;1.50;;;20.00;60.70;;;;;;5113996;28;20076;-70
2022/05/21 02:13:49;;;;;;;2.45;1.55;;;20.10;56.80;;;;;;5114433;28;20074;-70
2022/05/21 02:16:16;;;;;;;2.88;1.63;;;20.10;56.80;;;;;;5114676;28;20052;-69
2022/05/21 02:18:42;;;;;;;3.15;1.40;;;20.10;56.90;;;;;;5114440;28;20059;-69
2022/05/21 02:21:09;;;;;;;2.38;1.85;;;20.10;56.90;;;;;;5114073;28;20411;-69
2022/05/21 02:23:36;;;;;;;2.88;1.65;;;20.00;56.80;;;;;;5114142;28;20047;-70
2022/05/21 02:26:03;;;;;;;3.40;1.80;;;20.00;56.80;;;;;;5114172;28;20060;-70
2022/05/21 02:28:29;;;;;;;2.60;1.73;;;20.20;59.50;;;;;;5114238;28;20054;-70
2022/05/21 02:30:57;;;;;;;4.55;1.90;;;20.00;56.80;;;;;;5114202;28;20056;-70
2022/05/21 02:33:24;;;;;;;2.40;1.40;;;20.00;56.80;;;;;;5115052;28;20044;-70
2022/05/21 02:35:51;;;;;;;2.60;1.70;;;20.00;56.80;;;;;;5114067;28;20426;-70
2022/05/21 02:41:02;;;;;;;3.97;1.80;;;19.60;61.10;;;;;;5113927;28;20408;-69
2022/05/21 02:43:29;;;;;;;2.78;1.80;;;20.00;56.90;;;;;;5113756;28;20092;-70
2022/05/21 02:45:56;;;;;;;2.63;1.45;;;20.00;60.50;;;;;;5113816;28;20432;-69
2022/05/21 02:48:27;;;;;;;2.85;1.83;;;20.70;59.60;;;;;;5113694;28;20484;-71
2022/05/21 02:50:54;;;;;;;4.60;1.83;;;20.00;56.90;;;;;;5113758;28;20142;-69
2022/05/21 02:53:21;;;;;;;3.65;2.00;;;20.00;56.90;;;;;;5113052;28;20052;-70
2022/05/21 02:55:47;;;;;;;3.25;1.92;;;20.00;56.90;;;;;;5113564;28;20056;-69
2022/05/21 02:58:14;;;;;;;2.35;1.60;;;18.50;60.40;;;;;;5113910;28;20058;-69
2022/05/21 03:00:42;;;;;;;3.15;1.60;;;19.90;56.90;;;;;;5113243;28;20055;-70
2022/05/21 03:03:08;;;;;;;2.97;1.73;;;20.00;57.00;;;;;;5113802;28;20047;-69
2022/05/21 03:05:36;;;;;;;2.78;1.80;;;19.90;56.80;;;;;;5113494;28;20404;-70
2022/05/21 03:10:20;;;;;;;4.93;1.80;;;20.00;56.90;;;;;;5113367;28;20411;-70
2022/05/21 03:10:51;;;;;;;3.83;2.10;;;19.90;56.90;;;;;;5112686;28;20481;-70
2022/05/21 03:13:18;;;;;;;2.67;1.90;;;19.90;56.90;;;;;;5113529;28;20039;-70
2022/05/21 03:15:45;;;;;;;3.15;1.90;;;19.90;61.20;;;;;;5113424;28;20082;-70
2022/05/21 03:18:12;;;;;;;2.90;1.90;;;19.90;56.90;;;;;;5114455;28;20047;-69
2022/05/21 03:20:40;;;;;;;3.33;1.92;;;20.30;61.60;;;;;;5112973;28;20130;-70
2022/05/21 03:23:07;;;;;;;4.00;2.35;;;20.90;61.90;;;;;;5113101;28;20050;-69
2022/05/21 03:25:34;;;;;;;2.63;1.80;;;19.90;57.00;;;;;;5114681;28;20043;-69
2022/05/21 03:28:01;;;;;;;2.17;1.60;;;19.80;60.50;;;;;;5113353;28;20059;-69
2022/05/21 03:30:30;;;;;;;4.10;1.90;;;19.90;57.00;;;;;;5113926;28;20047;-70
2022/05/21 03:32:57;;;;;;;3.38;1.88;;;19.90;57.00;;;;;;5114030;28;20054;-70
2022/05/21 03:35:23;;;;;;;2.85;1.83;;;19.80;56.90;;;;;;5112824;28;20055;-70
2022/05/21 03:37:52;;;;;;;2.55;1.77;;;19.80;57.00;;;;;;5114098;28;20044;-70
2022/05/21 03:40:21;;;;;;;3.08;1.67;;;19.90;57.00;;;;;;5112445;28;20062;-70
2022/05/21 03:42:47;;;;;;;2.67;1.80;;;19.90;61.70;;;;;;5114060;28;20047;-69
2022/05/21 03:45:15;;;;;;;3.35;2.05;;;19.90;57.00;;;;;;5112669;28;20051;-70
2022/05/21 03:47:42;;;;;;;3.08;1.75;;;19.80;56.90;;;;;;5113610;28;20048;-69
2022/05/21 03:50:10;;;;;;;3.25;1.95;;;19.80;57.00;;;;;;5112412;28;20135;-70
2022/05/21 03:52:36;;;;;;;3.63;1.67;;;19.80;57.00;;;;;;5112413;28;20130;-70
2022/05/21 03:55:06;;;;;;;4.28;1.92;;;19.90;57.10;;;;;;5112724;28;20056;-70
2022/05/21 03:57:33;;;;;;;3.70;1.88;;;19.80;57.00;;;;;;5112169;28;20100;-70
2022/05/21 04:00:00;;;;;;;2.78;1.80;;;19.90;61.30;;;;;;5113618;28;20051;-70
2022/05/21 04:02:26;;;;;;;3.15;2.10;;;19.80;57.00;;;;;;5112445;28;20052;-70
2022/05/21 04:04:53;;;;;;;3.35;1.80;;;19.80;57.00;;;;;;5112679;28;20488;-70
2022/05/21 04:07:20;;;;;;;2.67;1.80;;;19.80;57.00;;;;;;5113556;28;20154;-70
2022/05/21 04:09:47;;;;;;;4.25;1.90;;;19.80;57.00;;;;;;5113167;28;20047;-70
2022/05/21 04:12:15;;;;;;;3.38;1.85;;;19.90;60.50;;;;;;5113151;28;20059;-70
2022/05/21 04:14:42;;;;;;;2.50;1.73;;;19.80;60.50;;;;;;5113398;28;20054;-70
2022/05/21 04:17:13;;;;;;;2.55;1.80;;;19.80;57.60;;;;;;5112235;28;20062;-70
2022/05/21 04:19:40;;;;;;;2.85;1.80;;;21.20;60.90;;;;;;5113158;28;20043;-70
2022/05/21 04:22:07;;;;;;;2.88;1.70;;;19.80;57.00;;;;;;5112269;28;20381;-70
2022/05/21 04:24:34;;;;;;;2.92;1.70;;;19.80;57.00;;;;;;5111934;28;20058;-70
2022/05/21 04:27:00;;;;;;;3.15;1.98;;;19.90;61.50;;;;;;5112093;28;20074;-70
2022/05/21 04:29:28;;;;;;;2.95;1.85;;;19.80;57.00;;;;;;5111777;28;20052;-69
2022/05/21 04:31:55;;;;;;;3.03;1.90;;;19.80;56.90;;;;;;5111825;28;20415;-70
2022/05/21 04:34:22;;;;;;;3.65;1.83;;;19.80;57.00;;;;;;5111485;28;20051;-70
2022/05/21 04:36:49;;;;;;;3.80;2.30;;;19.60;60.80;;;;;;5111723;28;20052;-70
2022/05/21 04:39:15;;;;;;;3.53;1.85;;;19.80;56.90;;;;;;5111477;28;20059;-70
2022/05/21 04:41:42;;;;;;;4.03;1.85;;;19.80;56.90;;;;;;5111553;28;20056;-70
2022/05/21 04:44:09;;;;;;;2.83;1.90;;;19.40;61.20;;;;;;5112803;28;20053;-70
2022/05/21 04:46:37;;;;;;;2.60;1.60;;;19.70;56.90;;;;;;5111714;28;20051;-70
2022/05/21 04:49:04;;;;;;;2.90;1.80;;;19.70;57.50;;;;;;5111499;28;20176;-69
2022/05/21 04:51:31;;;;;;;3.08;1.70;;;19.70;57.00;;;;;;5112582;28;20048;-69
2022/05/21 04:53:57;;;;;;;2.50;1.60;;;19.70;56.90;;;;;;5111162;28;20580;-69
2022/05/21 04:56:24;;;;;;;3.75;1.75;;;19.70;57.00;;;;;;5111602;28;20061;-70
2022/05/21 04:58:52;;;;;;;5.65;1.83;;;20.30;61.40;;;;;;5112429;28;20481;-70
2022/05/21 05:01:18;;;;;;;2.88;1.85;;;19.80;60.40;;;;;;5112490;28;20048;-70
2022/05/21 05:03:46;;;;;;;4.00;1.80;;;20.10;60.70;;;;;;5111407;28;20056;-69
2022/05/21 05:06:13;;;;;;;3.33;1.77;;;19.70;57.00;;;;;;5111266;28;20056;-69
2022/05/21 05:08:40;;;;;;;3.90;1.85;;;19.70;57.10;;;;;;5112386;28;20043;-69
2022/05/21 05:11:07;;;;;;;3.30;2.10;;;19.70;57.10;;;;;;5111076;28;20138;-69
2022/05/21 05:13:33;;;;;;;2.55;1.67;;;18.60;60.40;;;;;;5112596;28;20047;-69
2022/05/21 05:16:00;;;;;;;3.08;1.75;;;19.70;57.10;;;;;;5112096;28;20063;-70
2022/05/21 05:18:30;;;;;;;3.20;1.80;;;18.70;59.20;;;;;;5112007;28;20054;-69
2022/05/21 05:20:58;;;;;;;3.60;1.80;;;19.70;57.10;;;;;;5111034;28;20408;-69
2022/05/21 05:23:25;;;;;;;2.78;1.73;;;19.30;60.80;;;;;;5111283;28;20116;-70
2022/05/21 05:25:52;;;;;;;4.07;1.70;;;19.40;61.10;;;;;;5111019;28;20059;-69
2022/05/21 05:28:20;;;;;;;3.10;1.60;;;19.70;59.40;;;;;;5111166;28;20055;-70
2022/05/21 05:30:47;;;;;;;2.60;1.48;;;19.70;57.00;;;;;;5110863;28;20051;-69
2022/05/21 05:33:14;;;;;;;3.03;1.42;;;20.00;61.60;;;;;;5111052;28;20054;-70
2022/05/21 05:35:41;;;;;;;3.05;1.50;;;19.70;57.00;;;;;;5110803;28;20150;-69
2022/05/21 05:38:11;;;;;;;4.30;1.40;;;19.80;60.30;;;;;;5111163;28;20062;-70
2022/05/21 05:40:37;;;;;;;3.00;1.63;;;19.70;56.90;;;;;;5110685;28;20062;-70
2022/05/21 05:43:04;;;;;;;3.72;1.75;;;18.60;60.40;;;;;;5110862;28;20077;-69
2022/05/21 05:45:31;;;;;;;4.82;1.80;;;19.70;56.90;;;;;;5111085;28;20130;-70
2022/05/21 05:47:58;;;;;;;2.95;1.50;;;19.70;56.80;;;;;;5110867;28;20044;-72
2022/05/21 05:50:25;;;;;;;3.17;1.67;;;19.70;60.70;;;;;;5105950;28;20044;-71
2022/05/21 05:52:51;;;;;;;3.08;1.48;;;19.80;56.80;;;;;;5103133;28;20058;-72
2022/05/21 05:55:20;;;;;;;2.25;1.40;;;19.90;60.20;;;;;;5094141;28;20044;-71
2022/05/21 05:57:51;;;;;;;2.85;1.30;;;19.80;61.50;;;;;;5091525;28;20052;-72
2022/05/21 06:00:17;;;;;;;3.25;1.50;;;19.90;56.80;;;;;;5091479;28;20362;-71
2022/05/21 06:02:59;;;;;;;3.17;1.40;;;19.90;56.70;;;;;;5090536;28;20471;-72
2022/05/21 06:05:26;;;;;;;3.95;1.67;;;19.90;56.60;;;;;;5090433;28;20403;-72
2022/05/21 06:07:54;;;;;;;3.60;1.90;;;19.90;56.60;;;;;;5091565;28;20127;-71
2022/05/21 06:10:24;;;;;;;2.92;1.50;;;20.00;56.60;;;;;;5091380;28;20047;-71
2022/05/21 06:12:50;;;;;;;2.95;1.30;;;20.00;56.50;;;;;;5090566;28;20052;-71
2022/05/21 06:15:17;;;;;;;2.80;1.48;;;20.50;60.70;;;;;;5090388;28;20055;-71
2022/05/21 06:17:44;;;;;;;2.53;1.50;;;20.10;56.40;;;;;;5090206;28;20062;-71
2022/05/21 06:20:14;;;;;;;4.35;1.38;;;20.20;56.40;;;;;;5090269;28;20086;-71
2022/05/21 06:22:40;;;;;;;2.15;1.40;;;20.20;56.30;;;;;;5090471;28;20097;-71
2022/05/21 06:25:08;;;;;;;2.65;1.20;;;20.10;60.30;;;;;;5090545;28;20043;-71
2022/05/21 06:27:36;;;;;;;3.45;1.50;;;20.20;56.30;;;;;;5091728;28;20134;-71
2022/05/21 06:30:04;;;;;;;2.67;1.30;;;20.20;56.20;;;;;;5093626;28;20143;-71
2022/05/21 06:32:31;;;;;;;4.38;1.50;;;20.20;56.20;;;;;;5093562;28;20059;-71
2022/05/21 06:34:57;;;;;;;3.83;1.55;;;20.90;60.30;;;;;;5095313;28;20044;-70
2022/05/21 06:37:24;;;;;;;4.78;1.40;;;20.30;56.20;;;;;;5093996;28;20055;-72
2022/05/21 06:39:51;;;;;;;5.35;1.55;;;20.30;56.10;;;;;;5093269;28;20056;-72
2022/05/21 06:42:18;;;;;;;3.33;1.50;;;20.10;59.60;;;;;;5102694;28;20052;-72
2022/05/21 06:44:46;;;;;;;5.13;1.50;;;20.30;55.90;;;;;;5103131;28;20431;-74
2022/05/21 06:47:12;;;;;;;3.30;1.50;;;20.40;55.90;;;;;;5104551;28;20044;-72
2022/05/21 06:49:39;;;;;;;4.80;1.65;;;20.40;56.10;;;;;;5103656;28;20044;-72
2022/05/21 06:52:06;;;;;;;4.07;1.60;;;20.50;55.70;;;;;;5102956;28;20055;-72
2022/05/21 06:54:33;;;;;;;3.88;1.40;;;20.50;55.60;;;;;;5103679;28;20043;-72
2022/05/21 06:56:59;;;;;;;3.45;1.42;;;20.60;55.50;;;;;;5102983;28;20052;-71
2022/05/21 06:59:29;;;;;;;3.92;1.52;;;20.70;55.50;;;;;;5103463;28;20054;-71
2022/05/21 07:01:57;;;;;;;4.30;1.88;;;20.80;55.40;;;;;;5094377;28;20050;-71
2022/05/21 07:09:49;;;;;;;3.72;1.25;;;21.00;55.10;;;;;;5092782;28;20338;-72
2022/05/21 07:12:15;;;;;;;5.00;1.52;;;21.10;55.10;;;;;;5092768;28;20055;-73
2022/05/21 07:14:42;;;;;;;2.63;1.15;;;21.10;54.90;;;;;;5092911;28;20059;-73
2022/05/21 07:17:14;;;;;;;3.22;1.40;;;21.20;54.80;;;;;;5093016;28;20142;-73
2022/05/21 07:19:40;;;;;;;2.67;1.30;;;22.10;58.90;;;;;;5092698;28;20052;-72
2022/05/21 07:22:09;;;;;;;2.75;1.35;;;21.40;54.70;;;;;;5093026;28;20059;-72
2022/05/21 07:24:38;;;;;;;3.03;1.30;;;21.50;54.60;;;;;;5093066;28;20508;-73
2022/05/21 07:27:05;;;;;;;2.58;1.25;;;22.60;59.60;;;;;;5092686;28;20052;-72
2022/05/21 07:29:32;;;;;;;3.83;1.40;;;21.70;54.40;;;;;;5092472;28;20056;-72
2022/05/21 07:31:59;;;;;;;2.95;1.30;;;21.70;54.20;;;;;;5092440;28;20059;-72
2022/05/21 07:34:27;;;;;;;2.80;1.30;;;21.80;54.10;;;;;;5092801;28;20313;-72
2022/05/21 07:36:53;;;;;;;4.57;1.40;;;21.80;54.00;;;;;;5092500;28;20056;-72
2022/05/21 07:39:20;;;;;;;2.63;1.25;;;21.80;53.90;;;;;;5074810;28;20048;-73
2022/05/21 07:41:47;;;;;;;3.05;1.38;;;21.90;53.90;;;;;;5091959;28;20055;-72
2022/05/21 07:44:14;;;;;;;3.92;1.35;;;21.90;53.80;;;;;;5092180;28;20131;-74
2022/05/21 07:46:41;;;;;;;3.00;1.20;;;22.80;57.70;;;;;;5092244;28;20060;-72
2022/05/21 07:49:09;;;;;;;2.55;1.30;;;22.00;53.70;;;;;;5092431;28;20063;-74
2022/05/21 07:51:37;;;;;;;2.95;1.30;;;22.00;54.20;;;;;;5091994;28;20135;-74
2022/05/21 07:54:04;;;;;;;3.15;1.33;;;22.10;53.60;;;;;;5092443;28;20052;-73
2022/05/21 07:56:32;;;;;;;2.38;1.23;;;22.10;53.60;;;;;;5126344;27;20062;-72
2022/05/21 07:58:58;;;;;;;3.22;1.45;;;22.10;53.50;;;;;;5093107;28;20451;-73
2022/05/21 08:01:25;;;;;;;5.38;1.40;;;22.10;53.50;;;;;;5091377;28;20092;-73
2022/05/21 08:03:52;;;;;;;6.78;1.58;;;22.10;53.50;;;;;;5091938;28;20062;-71
2022/05/21 08:06:19;;;;;;;3.17;1.42;;;22.10;53.50;;;;;;5091976;28;20424;-72
2022/05/21 08:08:49;;;;;;;5.20;1.60;;;22.00;53.30;;;;;;5091783;28;20052;-71
2022/05/21 08:11:16;;;;;;;3.75;1.50;;;21.70;56.60;;;;;;5099108;28;20140;-71
2022/05/21 08:13:43;;;;;;;6.32;1.88;;;21.90;53.30;;;;;;5100684;28;20079;-72
2022/05/21 08:16:10;;;;;;;4.93;1.52;;;21.90;53.30;;;;;;5103625;28;20491;-71
2022/05/21 08:18:36;;;;;;;3.47;1.33;;;21.90;55.90;;;;;;5101530;28;20047;-71
2022/05/21 08:21:04;;;;;;;1.70;1.00;;;21.90;53.30;;;;;;5100366;28;20055;-72
2022/05/21 08:29:00;;;;;;;5.63;1.55;;;22.10;53.10;;;;;;5100953;28;20056;-71
2022/05/21 08:31:27;;;;;;;3.08;1.30;;;22.10;53.10;;;;;;5100145;28;20063;-71
2022/05/21 08:33:53;;;;;;;5.28;1.42;;;22.10;52.90;;;;;;5101666;28;20073;-72
2022/05/21 08:36:20;;;;;;;4.32;1.60;;;22.20;52.90;;;;;;5097060;28;20059;-71
2022/05/21 08:38:47;;;;;;;3.45;1.33;;;22.20;57.60;;;;;;5091235;28;20077;-71
2022/05/21 08:41:19;;;;;;;3.25;1.20;;;22.10;56.50;;;;;;5090419;28;20083;-72
2022/05/21 08:43:51;;;;;;;4.00;1.50;;;22.40;52.80;;;;;;5090718;28;20397;-72
2022/05/21 08:46:23;;;;;;;4.15;1.40;;;22.30;52.60;;;;;;5091292;28;20499;-71
2022/05/21 08:48:59;;;;;;;5.88;1.67;;;22.40;52.60;;;;;;5092504;28;20121;-71
2022/05/21 08:51:28;;;;;;;3.45;1.35;;;22.30;52.60;;;;;;5090440;28;20055;-71
2022/05/21 08:53:55;;;;;;;4.53;1.75;;;21.80;55.60;;;;;;5091352;28;20082;-71
2022/05/21 08:56:24;;;;;;;4.35;1.40;;;22.30;52.60;;;;;;5090935;28;20048;-72
2022/05/21 08:58:51;;;;;;;2.40;1.30;;;22.30;52.50;;;;;;5091247;28;20519;-71
2022/05/21 09:01:20;;;;;;;4.47;1.48;;;22.40;52.50;;;;;;5091977;28;20051;-71
2022/05/21 09:03:47;;;;;;;5.57;1.50;;;22.60;55.90;;;;;;5090943;28;20052;-71
2022/05/21 09:06:23;;;;;;;3.20;1.15;;;22.50;52.60;;;;;;5074343;28;20062;-72
2022/05/21 09:08:52;;;;;;;2.45;1.17;;;22.60;56.60;;;;;;5091324;28;20168;-72
2022/05/21 09:11:23;;;;;;;3.50;1.30;;;22.50;52.50;;;;;;5098189;28;20044;-72
2022/05/21 09:13:58;;;;;;;4.97;1.50;;;22.50;52.40;;;;;;5100207;28;20062;-71
2022/05/21 09:19:10;;;;;;;4.75;1.38;;;22.60;52.40;;;;;;5087317;28;20047;-71
2022/05/21 09:21:38;;;;;;;5.07;1.52;;;22.50;52.30;;;;;;5071336;28;20102;-73
2022/05/21 09:24:06;;;;;;;2.47;1.25;;;22.50;56.90;;;;;;5070282;28;20049;-72
2022/05/21 09:26:45;;;;;;;3.53;1.25;;;22.50;52.30;;;;;;5070183;28;20144;-73
2022/05/21 09:29:16;;;;;;;7.28;1.75;;;22.50;56.00;;;;;;5070721;28;20067;-71
2022/05/21 09:31:43;;;;;;;3.30;1.52;;;22.50;52.30;;;;;;5070434;28;20053;-71
2022/05/21 09:34:15;;;;;;;3.58;1.30;;;22.50;52.30;;;;;;5071854;28;20413;-71
2022/05/21 09:36:41;;;;;;;3.80;1.50;;;22.50;52.30;;;;;;5070671;28;20131;-72
2022/05/21 09:39:08;;;;;;;4.65;1.73;;;22.10;55.80;;;;;;5070648;28;20059;-71
2022/05/21 09:41:36;;;;;;;4.75;1.77;;;22.40;52.30;;;;;;5071481;28;20052;-71
2022/05/21 09:47:11;;;;;;;4.10;1.50;;;22.40;52.20;;;;;;5070760;28;20048;-72
2022/05/21 09:49:39;;;;;;;4.72;1.30;;;22.50;52.40;;;;;;5071697;28;20097;-72
2022/05/21 09:52:07;;;;;;;5.00;1.50;;;22.40;52.30;;;;;;5070384;28;20063;-72
2022/05/21 09:54:35;;;;;;;4.25;1.75;;;22.40;52.30;;;;;;5070316;28;20045;-72
2022/05/21 09:57:02;;;;;;;4.15;1.55;;;22.40;52.30;;;;;;5070581;28;20052;-72
2022/05/21 09:59:30;;;;;;;3.35;1.25;;;22.40;52.30;;;;;;5070027;28;20048;-72
2022/05/21 10:01:59;;;;;;;4.60;1.70;;;22.50;52.30;;;;;;5070477;28;20061;-72
2022/05/21 10:04:30;;;;;;;3.80;1.40;;;22.50;52.30;;;;;;5072961;28;20056;-72
2022/05/21 10:07:03;;;;;;;4.10;1.20;;;22.50;52.90;;;;;;5074308;28;20056;-72
2022/05/21 10:12:18;;;;;;;3.75;1.30;;;22.40;52.30;;;;;;5074087;28;20499;-73
2022/05/21 10:14:48;;;;;;;2.80;1.30;;;22.30;52.40;;;;;;5074018;28;20056;-72
2022/05/21 10:17:20;;;;;;;5.68;1.40;;;22.30;52.40;;;;;;5101325;28;20063;-72
2022/05/21 10:19:58;;;;;;;3.75;1.40;;;22.20;52.40;;;;;;5101427;28;20511;-72
2022/05/21 10:22:31;;;;;;;4.90;2.00;;;22.30;56.20;;;;;;5126023;27;20052;-72
2022/05/21 10:25:03;;;;;;;4.88;1.48;;;22.20;52.60;;;;;;5102801;28;20127;-72
2022/05/21 10:27:45;;;;;;;5.07;1.50;;;22.10;52.60;;;;;;5101606;28;20062;-72
2022/05/21 10:30:15;;;;;;;5.10;1.52;;;22.10;52.60;;;;;;5102904;28;20084;-72
2022/05/21 10:32:54;;;;;;;4.50;1.42;;;22.10;52.60;;;;;;5102718;28;20054;-72
2022/05/21 10:35:32;;;;;;;3.60;1.33;;;22.10;52.60;;;;;;5102523;28;20070;-72
2022/05/21 10:38:02;;;;;;;3.53;1.42;;;22.10;52.70;;;;;;5103760;28;20070;-72
2022/05/21 10:40:35;;;;;;;4.60;1.48;;;22.00;52.70;;;;;;5100173;28;20048;-72
2022/05/21 10:43:22;;;;;;;3.47;1.30;;;22.00;52.70;;;;;;5103733;28;20489;-72
2022/05/21 10:45:56;;;;;;;3.25;1.20;;;22.00;52.70;;;;;;5096956;28;20055;-72
2022/05/21 10:48:59;;;;;;;4.85;1.30;;;22.10;54.60;;;;;;5093529;28;20073;-72
2022/05/21 10:51:29;;;;;;;3.92;1.30;;;21.70;56.70;;;;;;5089899;28;20060;-72
2022/05/21 10:54:10;;;;;;;3.53;1.25;;;21.80;57.50;;;;;;5094640;28;20055;-72
2022/05/21 10:56:45;;;;;;;2.90;1.23;;;21.80;53.60;;;;;;5092926;28;20459;-72
2022/05/21 10:59:26;;;;;;;3.70;1.20;;;21.80;53.00;;;;;;5093573;28;20056;-72
2022/05/21 11:01:57;;;;;;;3.28;1.58;;;21.90;53.10;;;;;;5094238;28;20503;-73
2022/05/21 11:04:47;;;;;;;2.75;1.20;;;21.80;53.10;;;;;;5093605;28;20138;-72
2022/05/21 11:07:26;;;;;;;9.73;1.55;;;21.80;53.00;;;;;;5093354;28;20055;-72
2022/05/21 11:09:57;;;;;;;5.35;1.65;;;21.80;53.00;;;;;;5095482;28;20051;-72
2022/05/21 11:12:43;;;;;;;4.65;1.80;;;21.80;53.00;;;;;;5100169;28;20481;-73
2022/05/21 11:15:11;;;;;;;9.30;1.42;;;21.90;53.00;;;;;;5103394;28;20048;-72
2022/05/21 11:17:40;;;;;;;5.35;1.58;;;21.90;53.10;;;;;;5102871;28;20143;-72
2022/05/21 11:20:13;;;;;;;3.20;1.30;;;21.80;53.10;;;;;;5094148;28;20059;-73
2022/05/21 11:22:44;;;;;;;6.82;1.60;;;21.90;53.10;;;;;;5093033;28;20056;-73
2022/05/21 11:25:14;;;;;;;6.97;1.75;;;22.40;56.90;;;;;;5094055;28;20489;-70
2022/05/21 11:27:45;;;;;;;8.90;1.50;;;21.90;56.30;;;;;;5094073;28;20584;-70
2022/05/21 11:30:13;;;;;;;5.22;1.30;;;21.80;53.00;;;;;;5092880;28;20048;-70
2022/05/21 11:38:17;;;;;;;12.57;2.10;;;21.80;53.10;;;;;;5092344;28;20051;-70
2022/05/21 11:40:52;;;;;;;10.88;1.60;;;21.80;53.40;;;;;;5093796;28;20047;-71
2022/05/21 11:43:19;;;;;;;5.07;1.73;;;21.80;53.40;;;;;;5092200;28;20048;-71
2022/05/21 11:45:59;;;;;;;7.05;1.63;;;21.70;56.70;;;;;;5093678;28;20058;-70
2022/05/21 11:48:28;;;;;;;7.35;1.50;;;21.90;55.50;;;;;;5093308;28;20052;-70
2022/05/21 11:51:34;;;;;;;8.90;2.00;;;21.80;53.40;;;;;;5092208;28;20103;-69
2022/05/21 11:54:02;;;;;;;;;;;21.80;54.20;;;;;;5078470;28;20512;-68
2022/05/21 11:57:00;;;;;;;6.63;1.50;;;21.70;54.00;;;;;;5093259;28;19920;-69
2022/05/21 11:59:29;;;;;;;10.75;1.77;;;21.70;58.60;;;;;;5126170;27;20481;-70
2022/05/21 12:02:00;;;;;;;10.38;1.77;;;21.80;57.40;;;;;;5092073;28;20063;-70
2022/05/21 12:04:47;;;;;;;6.60;1.48;;;21.70;54.60;;;;;;5092229;28;20546;-70
2022/05/21 12:07:14;;;;;;;14.38;2.10;;;21.90;58.10;;;;;;5092065;28;20047;-70
2022/05/21 12:09:59;;;;;;;11.40;2.40;;;21.70;54.90;;;;;;5091480;28;20067;-71
2022/05/21 12:12:28;;;;;;;15.53;2.50;;;21.80;55.10;;;;;;5092296;28;20060;-72
2022/05/21 12:14:56;;;;;;;13.73;1.83;;;21.70;58.00;;;;;;5092762;28;20044;-71
2022/05/21 12:17:43;;;;;;;12.40;1.80;;;21.70;59.20;;;;;;5092715;28;20071;-71
2022/05/21 12:20:11;;;;;;;13.88;1.98;;;21.80;54.80;;;;;;5091635;28;20059;-71
2022/05/21 12:22:45;;;;;;;16.95;1.85;;;21.80;54.80;;;;;;5092704;28;20040;-71
2022/05/21 12:25:58;;;;;;;13.73;2.00;;;21.80;54.70;;;;;;5092854;28;20497;-71
2022/05/21 12:28:47;;;;;;;7.45;1.45;;;21.90;57.10;;;;;;5091591;28;20061;-71
2022/05/21 12:31:19;;;;;;;8.05;1.67;;;21.80;55.50;;;;;;5092737;28;20083;-71
2022/05/21 12:34:07;;;;;;;6.35;1.70;;;21.80;55.50;;;;;;5091342;28;20067;-71
2022/05/21 12:36:44;;;;;;;10.18;1.73;;;21.80;55.70;;;;;;5091219;28;20044;-70
2022/05/21 12:39:12;;;;;;;7.15;1.60;;;21.90;55.80;;;;;;5091657;28;20058;-70
2022/05/21 12:41:40;;;;;;;8.38;1.60;;;21.80;59.00;;;;;;5090768;28;20048;-70
2022/05/21 12:44:08;;;;;;;8.15;1.65;;;21.80;60.00;;;;;;5091651;28;20058;-70
2022/05/21 12:46:36;;;;;;;9.90;2.10;;;21.90;55.60;;;;;;5091493;28;20052;-71
2022/05/21 12:49:04;;;;;;;5.85;1.20;;;21.90;55.40;;;;;;5092262;28;20051;-70
2022/05/21 12:51:32;;;;;;;12.23;1.50;;;21.90;55.30;;;;;;5090861;28;20056;-70
2022/05/21 12:54:00;;;;;;;5.22;1.55;;;21.30;57.70;;;;;;5090169;28;20447;-70
2022/05/21 12:56:29;;;;;;;7.13;1.42;;;21.90;54.90;;;;;;5089010;28;20055;-70
2022/05/21 12:59:04;;;;;;;7.97;1.77;;;21.90;54.70;;;;;;5090455;28;20063;-71
2022/05/21 13:01:34;;;;;;;;;;;21.90;54.70;;;;;;5095673;28;20046;-70
2022/05/21 13:04:01;;;;;;;4.15;1.35;;;21.90;55.30;;;;;;5101148;28;20411;-71
2022/05/21 13:06:29;;;;;;;6.47;1.30;;;21.80;58.70;;;;;;5099891;28;20086;-70
2022/05/21 13:08:56;;;;;;;3.40;1.10;;;21.80;55.20;;;;;;5101293;28;20044;-70
2022/05/21 13:11:23;;;;;;;5.72;1.40;;;21.90;54.60;;;;;;5101133;28;20386;-71
2022/05/21 13:14:00;;;;;;;4.13;1.27;;;21.90;57.90;;;;;;5099452;28;20047;-70
2022/05/21 13:16:27;;;;;;;4.10;1.40;;;21.80;54.40;;;;;;5099721;28;20047;-70
2022/05/21 13:19:15;;;;;;;4.55;1.48;;;22.20;57.60;;;;;;5096999;28;20044;-70
2022/05/21 13:21:45;;;;;;;4.93;1.30;;;21.70;58.80;;;;;;5107719;28;20075;-70
2022/05/21 13:24:17;;;;;;;6.00;1.23;;;21.80;54.40;;;;;;5111271;28;20051;-70
2022/05/21 13:26:44;;;;;;;6.85;1.30;;;21.80;54.30;;;;;;5110936;28;20123;-70
2022/05/21 13:29:16;;;;;;;4.88;1.17;;;21.80;54.30;;;;;;5111155;28;20070;-70